Time;durP1;ratioP1;P1;durP2;ratioP2;P2;SDS_P1;SDS_P2;PMS_P1;PMS_P2;Temp;Humidity;BMP_temperature;BMP_pressure;BME280_temperature;BME280_humidity;BME280_pressure;Samples;Min_cycle;Max_cycle;Signal;HPM_P1;HPM_P2
2024/02/20 00:00:14;;;;;;;;;;;;;;;15.39;46.42;101725.38;5037989;28;1040;-56
2024/02/20 00:02:41;;;;;;;;;;;;;;;16.45;44.08;101728.72;5038164;28;1230;-56
2024/02/20 00:05:08;;;;;;;;;;;;;;;17.52;41.76;101725.88;5038289;28;1087;-57
2024/02/20 00:07:34;;;;;;;;;;;;;;;16.49;43.88;101721.66;5037743;28;1909;-57
2024/02/20 00:09:59;;;;;;;;;;;;;;;15.92;45.01;101726.13;5038063;28;1043;-55
2024/02/20 00:12:25;;;;;;;;;;;;;;;15.68;45.72;101728.97;5027810;28;1042;-56
2024/02/20 00:14:51;;;;;;;;;;;;;;;15.48;46.04;101732.13;5038324;28;1043;-51
2024/02/20 00:17:17;;;;;;;;;;;;;;;15.95;45.38;101725.69;5036829;28;2519;-57
2024/02/20 00:19:43;;;;;;;;;;;;;;;17.31;42.20;101725.59;5018203;28;1123;-55
2024/02/20 00:22:09;;;;;;;;;;;;;;;16.68;43.54;101723.06;5031795;28;1087;-56
2024/02/20 00:24:34;;;;;;;;;;;;;;;16.03;45.03;101713.44;5025870;28;1111;-56
2024/02/20 00:27:00;;;;;;;;;;;;;;;15.76;45.76;101718.69;5037028;28;1031;-55
2024/02/20 00:29:26;;;;;;;;;;;;;;;15.46;46.56;101712.38;5037844;28;1987;-56
2024/02/20 00:31:51;;;;;;;;;;;;;;;15.32;46.79;101711.81;5037374;28;992;-50
2024/02/20 00:34:18;;;;;;;;;;;;;;;16.67;43.68;101712.31;5037728;28;992;-56
2024/02/20 00:36:44;;;;;;;;;;;;;;;17.31;42.10;101697.31;5037181;28;976;-57
2024/02/20 00:39:09;;;;;;;;;;;;;;;16.25;44.50;101702.59;5036847;28;1066;-55
2024/02/20 00:41:35;;;;;;;;;;;;;;;15.81;45.52;101697.72;5024536;28;1079;-55
2024/02/20 00:44:01;;;;;;;;;;;;;;;15.52;46.30;101700.41;5037380;28;1108;-53
2024/02/20 00:46:26;;;;;;;;;;;;;;;15.37;46.62;101700.09;5037912;28;1103;-55
2024/02/20 00:48:52;;;;;;;;;;;;;;;16.30;44.36;101688.97;5032848;28;2643;-56
2024/02/20 00:51:19;;;;;;;;;;;;;;;17.45;41.78;101691.13;5034119;28;1205;-55
2024/02/20 00:53:45;;;;;;;;;;;;;;;16.63;43.65;101692.75;5027717;28;1116;-56
2024/02/20 00:56:11;;;;;;;;;;;;;;;15.99;44.89;101685.69;5037419;28;1237;-56
2024/02/20 00:58:39;;;;;;;;;;;;;;;15.73;45.77;101685.19;5037415;28;1172;-56
2024/02/20 01:01:10;;;;;;;;;;;;;;;15.49;46.10;101687.19;5037219;28;1110;-57
2024/02/20 01:03:38;;;;;;;;;;;;;;;15.25;46.65;101672.75;5025939;28;1094;-57
2024/02/20 01:06:05;;;;;;;;;;;;;;;16.13;44.94;101677.13;5022281;28;1048;-56
2024/02/20 01:08:31;;;;;;;;;;;;;;;17.35;42.00;101671.78;5036949;28;1927;-55
2024/02/20 01:10:57;;;;;;;;;;;;;;;16.84;42.91;101676.59;5023490;28;1019;-57
2024/02/20 01:13:22;;;;;;;;;;;;;;;16.11;44.95;101676.56;5036740;28;1043;-55
2024/02/20 01:15:48;;;;;;;;;;;;;;;15.71;45.77;101670.91;5037033;28;1083;-56
2024/02/20 01:18:13;;;;;;;;;;;;;;;15.55;45.95;101677.16;5028283;28;2552;-51
2024/02/20 01:20:39;;;;;;;;;;;;;;;15.43;46.22;101676.38;5035285;28;1043;-52
2024/02/20 01:23:04;;;;;;;;;;;;;;;16.71;43.70;101678.59;5036915;28;1032;-53
2024/02/20 01:25:30;;;;;;;;;;;;;;;17.52;41.65;101677.19;5036240;28;984;-49
2024/02/20 01:27:56;;;;;;;;;;;;;;;16.41;43.81;101668.81;5036435;28;1975;-49
2024/02/20 01:30:22;;;;;;;;;;;;;;;15.88;45.19;101670.16;5036708;28;1115;-53
2024/02/20 01:32:48;;;;;;;;;;;;;;;15.66;45.71;101661.75;5036739;28;1134;-49
2024/02/20 01:35:14;;;;;;;;;;;;;;;15.47;46.40;101663.84;5023176;28;1437;-54
2024/02/20 01:37:41;;;;;;;;;;;;;;;16.26;44.53;101660.34;5036397;28;880;-52
2024/02/20 01:40:08;;;;;;;;;;;;;;;17.47;41.98;101652.38;5036666;28;1060;-51
2024/02/20 01:42:35;;;;;;;;;;;;;;;16.53;43.80;101651.44;5036352;28;1226;-52
2024/02/20 01:45:01;;;;;;;;;;;;;;;15.96;45.11;101655.19;5030551;28;1087;-54
2024/02/20 01:47:26;;;;;;;;;;;;;;;15.70;45.80;101655.53;5029797;28;2755;-50
2024/02/20 01:49:52;;;;;;;;;;;;;;;15.52;46.09;101644.78;5035996;28;1911;-50
2024/02/20 01:52:18;;;;;;;;;;;;;;;16.30;44.38;101644.19;5036297;28;1139;-51
2024/02/20 01:54:43;;;;;;;;;;;;;;;17.46;41.87;101645.25;5035987;28;1410;-50
2024/02/20 01:57:09;;;;;;;;;;;;;;;16.48;43.87;101651.34;5032386;28;1013;-50
2024/02/20 01:59:35;;;;;;;;;;;;;;;15.97;44.96;101637.66;5029639;28;1154;-50
2024/02/20 02:02:00;;;;;;;;;;;;;;;15.64;45.69;101645.56;5029593;28;903;-52
2024/02/20 02:04:26;;;;;;;;;;;;;;;15.43;46.24;101646.22;5036345;28;1074;-49
2024/02/20 02:06:52;;;;;;;;;;;;;;;16.53;43.87;101644.00;5036393;28;1043;-54
2024/02/20 02:09:17;;;;;;;;;;;;;;;17.33;42.09;101640.94;5036034;28;1959;-55
2024/02/20 02:11:43;;;;;;;;;;;;;;;16.30;44.29;101646.94;5036065;28;1217;-51
2024/02/20 02:14:09;;;;;;;;;;;;;;;15.85;45.38;101645.94;5036034;28;1024;-50
2024/02/20 02:16:36;;;;;;;;;;;;;;;15.63;45.82;101646.63;5036329;28;1063;-51
2024/02/20 02:19:02;;;;;;;;;;;;;;;15.39;46.53;101645.91;5026305;28;2141;-52
2024/02/20 02:21:28;;;;;;;;;;;;;;;15.90;45.21;101640.53;5035665;28;1050;-52
2024/02/20 02:23:54;;;;;;;;;;;;;;;17.24;42.04;101637.84;5022595;28;1075;-57
2024/02/20 02:26:20;;;;;;;;;;;;;;;16.82;43.16;101640.31;5035820;28;954;-57
2024/02/20 02:28:47;;;;;;;;;;;;;;;16.14;44.81;101634.91;5035794;28;1902;-57
2024/02/20 02:31:13;;;;;;;;;;;;;;;15.71;45.74;101642.63;5036150;28;1055;-57
2024/02/20 02:33:39;;;;;;;;;;;;;;;15.53;46.10;101636.28;5035607;28;1154;-56
2024/02/20 02:36:04;;;;;;;;;;;;;;;15.44;46.53;101639.69;5035705;28;1110;-58
2024/02/20 02:38:30;;;;;;;;;;;;;;;16.94;42.71;101638.28;5036036;28;1226;-58
2024/02/20 02:40:56;;;;;;;;;;;;;;;17.00;42.34;101637.28;5035270;28;1115;-57
2024/02/20 02:43:21;;;;;;;;;;;;;;;16.17;44.41;101634.41;5036080;28;892;-56
2024/02/20 02:45:47;;;;;;;;;;;;;;;15.82;45.50;101633.56;5036163;28;1095;-56
2024/02/20 02:48:12;;;;;;;;;;;;;;;15.56;46.08;101632.25;5027143;28;2840;-57
2024/02/20 02:50:38;;;;;;;;;;;;;;;15.32;46.40;101639.72;5031721;28;921;-55
2024/02/20 02:53:04;;;;;;;;;;;;;;;16.53;43.73;101643.19;5035572;28;1004;-56
2024/02/20 02:55:29;;;;;;;;;;;;;;;17.40;41.75;101636.09;5035726;28;1161;-55
2024/02/20 02:57:55;;;;;;;;;;;;;;;16.25;44.09;101645.78;5035764;28;1062;-57
2024/02/20 03:00:21;;;;;;;;;;;;;;;15.79;45.50;101645.00;5035686;28;1107;-57
2024/02/20 03:02:49;;;;;;;;;;;;;;;15.55;45.96;101639.59;5036393;28;1063;-56
2024/02/20 03:05:18;;;;;;;;;;;;;;;15.57;45.94;101642.09;5039456;28;1099;-56
2024/02/20 03:07:44;;;;;;;;;;;;;;;17.07;42.50;101657.16;5038807;28;1902;-56
2024/02/20 03:10:11;;;;;;;;;;;;;;;16.81;43.13;101655.94;5039459;28;1036;-57
2024/02/20 03:12:37;;;;;;;;;;;;;;;16.11;44.63;101649.94;5020502;28;1154;-58
2024/02/20 03:15:03;;;;;;;;;;;;;;;15.74;45.58;101651.22;5036854;28;878;-58
2024/02/20 03:17:28;;;;;;;;;;;;;;;15.53;46.02;101657.41;5039084;28;2623;-57
2024/02/20 03:19:55;;;;;;;;;;;;;;;15.86;45.61;101655.81;5038681;28;1158;-57
2024/02/20 03:22:21;;;;;;;;;;;;;;;17.27;41.96;101662.06;5039115;28;1119;-57
2024/02/20 03:24:47;;;;;;;;;;;;;;;16.86;42.79;101657.94;5038740;28;1003;-57
2024/02/20 03:27:12;;;;;;;;;;;;;;;16.13;44.45;101658.78;5039174;28;989;-58
2024/02/20 03:29:38;;;;;;;;;;;;;;;15.77;45.61;101660.00;5038373;28;1918;-58
2024/02/20 03:32:04;;;;;;;;;;;;;;;15.55;46.08;101658.81;5039063;28;1159;-57
2024/02/20 03:34:30;;;;;;;;;;;;;;;15.38;46.28;101663.41;5038572;28;1214;-57
2024/02/20 03:36:55;;;;;;;;;;;;;;;16.70;43.60;101665.94;5037645;28;1060;-57
2024/02/20 03:39:23;;;;;;;;;;;;;;;17.30;41.90;101668.97;5038622;28;888;-56
2024/02/20 03:41:49;;;;;;;;;;;;;;;16.25;44.45;101664.16;5038457;28;1127;-59
2024/02/20 03:44:14;;;;;;;;;;;;;;;15.87;45.20;101668.47;5038587;28;1027;-55
2024/02/20 03:46:40;;;;;;;;;;;;;;;15.59;45.92;101661.91;5025123;28;1159;-55
2024/02/20 03:49:07;;;;;;;;;;;;;;;15.40;46.12;101661.25;5037986;28;2715;-56
2024/02/20 03:51:33;;;;;;;;;;;;;;;16.13;44.74;101660.66;5032876;28;1007;-56
2024/02/20 03:53:59;;;;;;;;;;;;;;;17.33;42.09;101664.88;5030817;28;1175;-53
2024/02/20 03:56:25;;;;;;;;;;;;;;;16.51;43.61;101667.31;5038544;28;983;-54
2024/02/20 03:58:50;;;;;;;;;;;;;;;15.96;45.00;101669.72;5038173;28;1137;-53
2024/02/20 04:01:16;;;;;;;;;;;;;;;15.64;45.62;101666.63;5037664;28;1068;-55
2024/02/20 04:03:42;;;;;;;;;;;;;;;15.44;46.28;101667.91;5037703;28;944;-54
2024/02/20 04:06:08;;;;;;;;;;;;;;;15.73;45.71;101666.00;5024767;28;1023;-55
2024/02/20 04:08:34;;;;;;;;;;;;;;;17.20;42.16;101663.34;5038227;28;1918;-55
2024/02/20 04:11:00;;;;;;;;;;;;;;;17.07;42.16;101670.06;5022203;28;1123;-54
2024/02/20 04:13:25;;;;;;;;;;;;;;;16.23;44.13;101663.59;5021608;28;1349;-56
2024/02/20 04:15:51;;;;;;;;;;;;;;;15.81;45.44;101663.97;5038446;28;1043;-51
2024/02/20 04:18:17;;;;;;;;;;;;;;;15.56;45.96;101657.72;5037099;28;2468;-52
2024/02/20 04:20:42;;;;;;;;;;;;;;;15.39;46.20;101659.59;5025496;28;1039;-55
2024/02/20 04:23:08;;;;;;;;;;;;;;;16.49;44.04;101658.50;5037706;28;1079;-57
2024/02/20 04:25:34;;;;;;;;;;;;;;;17.55;41.45;101670.34;5037880;28;1102;-56
2024/02/20 04:27:59;;;;;;;;;;;;;;;16.56;43.43;101664.66;5037568;28;1970;-55
2024/02/20 04:30:25;;;;;;;;;;;;;;;15.98;44.84;101667.56;5037404;28;1122;-56
2024/02/20 04:32:51;;;;;;;;;;;;;;;15.65;45.55;101663.63;5037525;28;1032;-55
2024/02/20 04:35:16;;;;;;;;;;;;;;;15.44;46.15;101664.34;5037543;28;1071;-55
2024/02/20 04:37:43;;;;;;;;;;;;;;;15.45;46.23;101660.53;5037424;28;1035;-55
2024/02/20 04:40:08;;;;;;;;;;;;;;;17.04;42.67;101654.06;5037463;28;1132;-55
2024/02/20 04:42:34;;;;;;;;;;;;;;;17.14;42.05;101645.13;5036878;28;1091;-54
2024/02/20 04:45:00;;;;;;;;;;;;;;;16.19;44.43;101656.94;5037568;28;999;-56
2024/02/20 04:47:27;;;;;;;;;;;;;;;15.88;45.38;101650.94;5035343;28;2555;-58
2024/02/20 04:49:53;;;;;;;;;;;;;;;15.59;46.14;101652.84;5024153;28;1901;-58
2024/02/20 04:52:19;;;;;;;;;;;;;;;15.37;46.57;101653.53;5037247;28;1024;-58
2024/02/20 04:54:44;;;;;;;;;;;;;;;16.49;44.00;101647.53;5037126;28;1136;-58
2024/02/20 04:57:10;;;;;;;;;;;;;;;17.34;41.96;101645.38;5036782;28;1104;-56
2024/02/20 04:59:35;;;;;;;;;;;;;;;16.25;44.28;101653.19;5018983;28;1118;-57
2024/02/20 05:02:02;;;;;;;;;;;;;;;15.81;45.45;101642.88;5028282;28;1063;-57
2024/02/20 05:04:27;;;;;;;;;;;;;;;15.60;46.22;101646.25;5036046;28;1107;-56
2024/02/20 05:06:54;;;;;;;;;;;;;;;15.30;46.62;101648.16;5037190;28;1103;-57
2024/02/20 05:09:19;;;;;;;;;;;;;;;16.61;44.06;101651.00;5019084;28;1914;-56
2024/02/20 05:11:45;;;;;;;;;;;;;;;17.56;41.77;101650.03;5028479;28;1056;-56
2024/02/20 05:14:12;;;;;;;;;;;;;;;16.46;44.15;101651.59;5036231;28;1023;-51
2024/02/20 05:16:37;;;;;;;;;;;;;;;17.81;41.17;101651.34;5036392;28;1078;-47
2024/02/20 05:19:03;;;;;;;;;;;;;;;16.32;44.32;101651.09;5026146;28;2013;-52
2024/02/20 05:21:28;;;;;;;;;;;;;;;15.80;45.37;101651.34;5036285;28;1028;-48
2024/02/20 05:23:54;;;;;;;;;;;;;;;17.48;41.80;101655.97;5035903;28;1023;-54
2024/02/20 05:26:19;;;;;;;;;;;;;;;16.79;43.41;101654.53;5035952;28;1159;-54
2024/02/20 05:28:45;;;;;;;;;;;;;;;17.08;42.86;101658.81;5018371;28;1985;-47
2024/02/20 05:31:29;;;;;;;;;;;;;;;18.22;40.29;101654.50;5027908;28;1067;-53
2024/02/20 05:33:55;;;;;;;;;;;;;;;16.65;43.82;101659.53;5023814;28;1036;-53
2024/02/20 05:36:21;;;;;;;;;;;;;;;16.12;44.51;101659.00;5023030;28;1190;-51
2024/02/20 05:38:47;;;;;;;;;;;;;;;17.80;41.26;101658.78;5034702;28;902;-50
2024/02/20 05:41:12;;;;;;;;;;;;;;;16.63;43.92;101659.81;5023040;28;1163;-53
2024/02/20 05:43:38;;;;;;;;;;;;;;;16.26;44.57;101671.31;5036302;28;1040;-53
2024/02/20 05:46:03;;;;;;;;;;;;;;;17.57;41.54;101666.25;5035901;28;1035;-53
2024/02/20 05:48:29;;;;;;;;;;;;;;;16.35;44.36;101678.03;5025524;28;2404;-54
2024/02/20 05:50:54;;;;;;;;;;;;;;;17.19;43.04;101664.44;5028386;28;1051;-54
2024/02/20 05:53:20;;;;;;;;;;;;;;;17.62;41.53;101677.28;5028483;28;995;-56
2024/02/20 05:55:46;;;;;;;;;;;;;;;16.51;43.83;101672.78;5030013;28;1057;-55
2024/02/20 05:58:11;;;;;;;;;;;;;;;17.17;42.86;101674.84;5030800;28;1270;-57
2024/02/20 06:00:38;;;;;;;;;;;;;;;17.14;42.52;101680.84;5028652;28;1509;-57
2024/02/20 06:03:03;;;;;;;;;;;;;;;16.41;44.47;101679.81;5034895;28;1055;-55
2024/02/20 06:05:29;;;;;;;;;;;;;;;17.54;42.30;101680.50;5031708;28;1098;-53
2024/02/20 06:07:55;;;;;;;;;;;;;;;17.07;42.99;101675.56;5031030;28;1918;-57
2024/02/20 06:10:20;;;;;;;;;;;;;;;16.56;44.32;101681.13;5032793;28;1287;-53
2024/02/20 06:12:46;;;;;;;;;;;;;;;18.24;40.55;101682.59;5034342;28;1127;-53
2024/02/20 06:15:13;;;;;;;;;;;;;;;16.82;43.63;101684.25;5033926;28;1134;-59
2024/02/20 06:17:39;;;;;;;;;;;;;;;16.41;44.42;101682.56;5031740;28;2023;-55
2024/02/20 06:20:04;;;;;;;;;;;;;;;18.05;41.05;101690.41;5034056;28;1206;-54
2024/02/20 06:22:32;;;;;;;;;;;;;;;16.70;43.90;101692.59;5035074;28;1186;-51
2024/02/20 06:24:57;;;;;;;;;;;;;;;16.54;44.19;101697.03;5035361;28;1367;-52
2024/02/20 06:27:23;;;;;;;;;;;;;;;18.33;40.49;101692.03;5034688;28;1171;-52
2024/02/20 06:29:49;;;;;;;;;;;;;;;16.93;43.27;101686.91;5030689;28;1918;-49
2024/02/20 06:32:15;;;;;;;;;;;;;;;16.46;44.31;101694.69;5031246;28;1318;-54
2024/02/20 06:34:41;;;;;;;;;;;;;;;18.02;41.35;101696.41;5022536;28;1245;-55
2024/02/20 06:37:06;;;;;;;;;;;;;;;16.73;43.89;101694.81;5034137;28;1348;-46
2024/02/20 06:39:32;;;;;;;;;;;;;;;16.42;44.07;101699.84;5038076;28;1119;-53
2024/02/20 06:41:58;;;;;;;;;;;;;;;16.57;44.27;101707.50;5038414;28;1360;-54
2024/02/20 06:44:23;;;;;;;;;;;;;;;17.32;42.57;101691.53;5037539;28;1345;-50
2024/02/20 06:46:49;;;;;;;;;;;;;;;16.52;44.30;101701.91;5038063;28;1277;-55
2024/02/20 06:49:15;;;;;;;;;;;;;;;16.95;43.74;101703.13;5024751;28;1910;-57
2024/02/20 06:51:40;;;;;;;;;;;;;;;17.86;41.28;101687.16;5038212;28;1421;-54
2024/02/20 06:54:06;;;;;;;;;;;;;;;16.72;44.09;101699.50;5038116;28;1079;-52
2024/02/20 06:56:32;;;;;;;;;;;;;;;18.32;40.58;101693.13;5037682;28;1316;-56
2024/02/20 06:58:58;;;;;;;;;;;;;;;17.46;42.16;101689.22;5038193;28;1165;-53
2024/02/20 07:01:23;;;;;;;;;;;;;;;16.80;43.83;101692.72;5036069;28;1115;-55
2024/02/20 07:03:52;;;;;;;;;;;;;;;16.47;44.26;101686.22;5034134;28;1174;-55
2024/02/20 07:06:18;;;;;;;;;;;;;;;16.57;44.34;101688.28;5033356;28;1293;-57
2024/02/20 07:08:43;;;;;;;;;;;;;;;17.58;41.99;101687.16;5037769;28;1914;-56
2024/02/20 07:11:10;;;;;;;;;;;;;;;16.65;44.03;101692.50;5032034;28;1388;-54
2024/02/20 07:13:38;;;;;;;;;;;;;;;16.22;44.52;101692.13;5034211;28;1371;-52
2024/02/20 07:16:06;;;;;;;;;;;;;;;18.04;41.20;101686.81;5037342;28;1212;-52
2024/02/20 07:18:32;;;;;;;;;;;;;;;17.10;43.17;101697.84;5037285;28;2371;-51
2024/02/20 07:20:57;;;;;;;;;;;;;;;16.46;44.33;101690.03;5037173;28;1130;-51
2024/02/20 07:23:23;;;;;;;;;;;;;;;16.47;44.64;101693.63;5038282;28;1201;-58
2024/02/20 07:25:49;;;;;;;;;;;;;;;17.82;41.58;101688.78;5036424;28;1113;-50
2024/02/20 07:28:14;;;;;;;;;;;;;;;16.62;44.10;101691.13;5028809;28;1910;-49
2024/02/20 07:30:40;;;;;;;;;;;;;;;16.30;44.60;101686.22;5019234;28;1431;-54
2024/02/20 07:33:06;;;;;;;;;;;;;;;17.94;41.66;101683.97;5027132;28;1178;-51
2024/02/20 07:35:31;;;;;;;;;;;;;;;16.90;43.53;101689.31;5031897;28;1127;-55
2024/02/20 07:37:57;;;;;;;;;;;;;;;16.37;44.40;101678.63;5033666;28;1191;-54
2024/02/20 07:40:22;;;;;;;;;;;;;;;16.52;44.51;101686.28;5038086;28;1134;-54
2024/02/20 07:42:49;;;;;;;;;;;;;;;18.22;41.02;101679.28;5038039;28;1233;-56
2024/02/20 07:45:14;;;;;;;;;;;;;;;16.97;43.82;101676.25;5035083;28;1083;-54
2024/02/20 07:47:40;;;;;;;;;;;;;;;16.95;44.02;101683.09;5024511;28;2097;-54
2024/02/20 07:50:06;;;;;;;;;;;;;;;18.38;41.07;101677.47;5037322;28;1909;-50
2024/02/20 07:52:31;;;;;;;;;;;;;;;17.16;43.55;101682.25;5034621;28;1356;-51
2024/02/20 07:54:57;;;;;;;;;;;;;;;17.80;42.49;101689.03;5037276;28;1300;-54
2024/02/20 07:57:23;;;;;;;;;;;;;;;17.67;42.57;101683.94;5036208;28;1052;-53
2024/02/20 07:59:48;;;;;;;;;;;;;;;17.51;43.27;101686.53;5036735;28;1092;-53
2024/02/20 08:02:14;;;;;;;;;;;;;;;19.04;39.52;101677.09;5026177;28;1040;-54
2024/02/20 08:04:41;;;;;;;;;;;;;;;17.52;42.85;101668.94;5036351;28;1066;-54
2024/02/20 08:07:06;;;;;;;;;;;;;;;18.19;41.70;101669.63;5026213;28;1106;-55
2024/02/20 08:09:32;;;;;;;;;;;;;;;18.24;41.32;101688.94;5023287;28;1906;-50
2024/02/20 08:11:57;;;;;;;;;;;;;;;17.50;43.24;101684.88;5018454;28;1024;-48
2024/02/20 08:14:25;;;;;;;;;;;;;;;19.26;39.62;101676.88;5019561;28;1310;-48
2024/02/20 08:16:50;;;;;;;;;;;;;;;15.18;48.66;101683.00;5029412;28;885;-46
2024/02/20 08:19:16;;;;;;;;;;;;;;;18.27;42.16;101690.31;5034630;28;2254;-49
2024/02/20 08:21:42;;;;;;;;;;;;;;;18.53;41.14;101685.00;5031503;28;1142;-47
2024/02/20 08:24:07;;;;;;;;;;;;;;;17.83;43.11;101704.19;5037604;28;1161;-49
2024/02/20 08:26:33;;;;;;;;;;;;;;;19.61;39.25;101688.31;5037535;28;1000;-47
2024/02/20 08:28:59;;;;;;;;;;;;;;;15.50;48.96;101698.97;5028100;28;1986;-52
2024/02/20 08:31:25;;;;;;;;;;;;;;;18.82;41.43;101693.75;5032813;28;1036;-51
2024/02/20 08:33:50;;;;;;;;;;;;;;;17.38;44.19;101687.75;5037691;28;1028;-54
2024/02/20 08:36:19;;;;;;;;;;;;;;;17.37;45.36;101690.75;5035747;28;976;-52
2024/02/20 08:38:45;;;;;;;;;;;;;;;19.57;40.13;101693.56;5026169;28;1028;-52
2024/02/20 08:41:10;;;;;;;;;;;;;;;15.44;49.41;101695.31;5033720;28;1119;-52
2024/02/20 08:43:36;;;;;;;;;;;;;;;18.86;41.92;101688.50;5026868;28;1023;-52
2024/02/20 08:46:01;;;;;;;;;;;;;;;18.43;42.43;101692.09;5023746;28;1008;-53
2024/02/20 08:48:27;;;;;;;;;;;;;;;17.22;45.84;101694.16;5035209;28;2223;-53
2024/02/20 08:50:53;;;;;;;;;;;;;;;19.69;40.19;101693.31;5036849;28;1052;-53
2024/02/20 08:53:18;;;;;;;;;;;;;;;16.06;48.14;101686.38;5036389;28;838;-51
2024/02/20 08:55:44;;;;;;;;;;;;;;;18.52;42.92;101694.38;5037027;28;1017;-53
2024/02/20 08:58:10;;;;;;;;;;;;;;;19.42;40.73;101686.06;5028421;28;1029;-51
2024/02/20 09:00:35;;;;;;;;;;;;;;;16.52;48.41;101696.44;5022889;28;1202;-52
2024/02/20 09:03:01;;;;;;;;;;;;;;;19.53;40.82;101681.41;5029913;28;1013;-51
2024/02/20 09:05:26;;;;;;;;;;;;;;;16.72;47.02;101691.25;5032101;28;852;-49
2024/02/20 09:07:52;;;;;;;;;;;;;;;18.30;44.12;101696.13;5033019;28;1914;-50
2024/02/20 09:10:17;;;;;;;;;;;;;;;20.09;39.62;101688.13;5036870;28;1286;-50
2024/02/20 09:12:43;;;;;;;;;;;;;;;15.52;50.46;101694.94;5035326;28;1194;-48
2024/02/20 09:15:09;;;;;;;;;;;;;;;19.31;41.68;101689.88;5036382;28;1015;-50
2024/02/20 09:17:34;;;;;;;;;;;;;;;17.32;45.53;101688.78;5035891;28;2097;-51
2024/02/20 09:20:00;;;;;;;;;;;;;;;17.55;46.03;101689.59;5036634;28;996;-49
2024/02/20 09:22:26;;;;;;;;;;;;;;;19.87;40.36;101683.72;5036304;28;1155;-48
2024/02/20 09:24:52;;;;;;;;;;;;;;;15.50;50.54;101685.28;5026765;28;1072;-51
2024/02/20 09:27:17;;;;;;;;;;;;;;;19.06;42.01;101683.16;5029453;28;1083;-51
2024/02/20 09:29:43;;;;;;;;;;;;;;;18.15;43.51;101682.25;5021556;28;1910;-49
2024/02/20 09:32:09;;;;;;;;;;;;;;;17.44;45.83;101685.91;5016563;28;1067;-52
2024/02/20 09:34:35;;;;;;;;;;;;;;;19.82;39.88;101676.25;5016332;28;1028;-52
2024/02/20 09:37:00;;;;;;;;;;;;;;;15.92;48.37;101682.25;5032656;28;1036;-50
2024/02/20 09:39:26;;;;;;;;;;;;;;;18.96;41.89;101677.59;5036408;28;1197;-48
2024/02/20 09:41:52;;;;;;;;;;;;;;;19.07;41.00;101673.78;5033244;28;1488;-52
2024/02/20 09:44:18;;;;;;;;;;;;;;;16.50;47.93;101676.66;5036617;28;1049;-51
2024/02/20 09:46:54;;;;;;;;;;;;;;;19.65;40.15;101675.63;5036288;28;1039;-54
2024/02/20 09:49:20;;;;;;;;;;;;;;;16.14;47.60;101676.06;5018322;28;2314;-52
2024/02/20 09:51:46;;;;;;;;;;;;;;;18.74;41.97;101673.03;5031947;28;1293;-51
2024/02/20 09:54:13;;;;;;;;;;;;;;;19.25;40.61;101674.41;5035084;28;1252;-50
2024/02/20 09:56:40;;;;;;;;;;;;;;;16.67;47.12;101682.94;5034974;28;1229;-48
2024/02/20 09:59:06;;;;;;;;;;;;;;;19.56;40.06;101671.72;5061342;28;1173;-49
2024/02/20 10:01:32;;;;;;;;;;;;;;;16.33;46.93;101671.16;5022805;28;1321;-50
2024/02/20 10:03:57;;;;;;;;;;;;;;;18.46;42.65;101674.22;5055083;28;1321;-48
2024/02/20 10:06:23;;;;;;;;;;;;;;;19.82;39.28;101667.97;5035308;28;1266;-50
2024/02/20 10:08:55;;;;;;;;;;;;;;;16.10;48.11;101667.47;5067760;28;1976;-50
2024/02/20 10:11:20;;;;;;;;;;;;;;;19.41;40.36;101651.28;5027028;28;1024;-50
2024/02/20 10:13:47;;;;;;;;;;;;;;;16.70;45.82;101660.44;5028330;28;1250;-50
2024/02/20 10:16:14;;;;;;;;;;;;;;;18.29;42.96;101664.19;5030142;28;1131;-51
2024/02/20 10:18:40;;;;;;;;;;;;;;;19.95;39.13;101651.97;5031236;28;2057;-47
2024/02/20 10:21:07;;;;;;;;;;;;;;;15.93;48.40;101655.69;5041844;28;1201;-52
2024/02/20 10:23:33;;;;;;;;;;;;;;;19.40;40.56;101655.16;5036953;28;1106;-53
2024/02/20 10:25:59;;;;;;;;;;;;;;;17.26;44.56;101656.81;5030892;28;1301;-54
2024/02/20 10:28:25;;;;;;;;;;;;;;;17.67;44.43;101654.53;5041908;28;1969;-55
2024/02/20 10:30:51;;;;;;;;;;;;;;;19.86;39.50;101645.34;5040691;28;1030;-53
2024/02/20 10:33:16;;;;;;;;;;;;;;;15.59;49.19;101652.84;5040802;28;996;-54
2024/02/20 10:35:42;;;;;;;;;;;;;;;19.14;41.13;101652.31;5028109;28;1004;-57
2024/02/20 10:38:11;;;;;;;;;;;;;;;17.82;43.37;101653.00;5041759;28;1043;-52
2024/02/20 10:40:37;;;;;;;;;;;;;;;17.51;45.03;101647.19;5041610;28;1163;-54
2024/02/20 10:43:04;;;;;;;;;;;;;;;19.72;39.59;101643.06;5041625;28;1061;-50
2024/02/20 10:45:30;;;;;;;;;;;;;;;15.51;49.53;101643.09;5029138;28;1079;-55
2024/02/20 10:47:56;;;;;;;;;;;;;;;18.92;41.54;101643.41;5035844;28;2174;-52
2024/02/20 10:50:22;;;;;;;;;;;;;;;18.42;41.87;101643.63;5074460;28;1131;-52
2024/02/20 10:52:48;;;;;;;;;;;;;;;17.05;46.00;101633.75;5070941;28;1154;-51
2024/02/20 10:55:14;;;;;;;;;;;;;;;19.61;39.78;101633.94;5053949;28;1129;-50
2024/02/20 10:57:41;;;;;;;;;;;;;;;15.96;48.00;101639.53;5061268;28;1104;-51
2024/02/20 11:00:10;;;;;;;;;;;;;;;18.67;42.08;101627.53;5042134;28;991;-55
2024/02/20 11:02:36;;;;;;;;;;;;;;;19.25;40.10;101611.81;5024919;28;1004;-48
2024/02/20 11:05:02;;;;;;;;;;;;;;;16.60;47.33;101619.13;5059475;28;1087;-48
2024/02/20 11:07:28;;;;;;;;;;;;;;;19.48;39.93;101610.47;5022520;28;1154;-52
2024/02/20 11:10:06;;;;;;;;;;;;;;;16.37;46.99;101612.78;5064088;28;1964;-47
2024/02/20 11:12:32;;;;;;;;;;;;;;;18.62;42.00;101606.28;5023938;28;1027;-53
2024/02/20 11:15:07;;;;;;;;;;;;;;;19.45;39.72;101601.94;5022074;28;1131;-49
2024/02/20 11:17:33;;;;;;;;;;;;;;;16.74;46.69;101605.84;5025617;28;2014;-51
2024/02/20 11:20:13;;;;;;;;;;;;;;;19.55;40.10;101595.63;5041909;28;1084;-52
2024/02/20 11:22:39;;;;;;;;;;;;;;;15.84;48.32;101597.66;5033630;28;1119;-50
2024/02/20 11:25:10;;;;;;;;;;;;;;;18.46;42.28;101597.94;5036965;28;1455;-52
2024/02/20 11:27:40;;;;;;;;;;;;;;;18.56;41.70;101596.34;5033978;28;1356;-53
2024/02/20 11:30:19;;;;;;;;;;;;;;;16.79;46.50;101594.09;5029926;28;1980;-49
2024/02/20 11:32:45;;;;;;;;;;;;;;;19.59;39.75;101593.97;5032758;28;1309;-51
2024/02/20 11:35:20;;;;;;;;;;;;;;;15.57;48.89;101587.28;5029736;28;1128;-50
2024/02/20 11:37:47;;;;;;;;;;;;;;;18.92;41.22;101588.28;5036997;28;1136;-46
2024/02/20 11:40:22;;;;;;;;;;;;;;;17.92;42.92;101587.94;5037298;28;1333;-52
2024/02/20 11:42:48;;;;;;;;;;;;;;;17.49;44.70;101594.38;5028147;28;1067;-50
2024/02/20 11:45:15;;;;;;;;;;;;;;;19.71;39.40;101588.97;5031009;28;1172;-58
2024/02/20 11:47:40;;;;;;;;;;;;;;;15.44;49.02;101590.34;5026615;28;2013;-57
2024/02/20 11:50:06;;;;;;;;;;;;;;;18.88;41.35;101574.19;5035522;28;1910;-56
2024/02/20 11:52:32;;;;;;;;;;;;;;;18.37;41.87;101577.50;5025554;28;1011;-56
2024/02/20 11:55:05;;;;;;;;;;;;;;;17.05;45.64;101579.63;5028272;28;1030;-53
2024/02/20 11:57:31;;;;;;;;;;;;;;;19.64;39.50;101583.75;5026323;28;1020;-48
2024/02/20 11:59:57;;;;;;;;;;;;;;;15.73;48.09;101580.16;5030771;28;1135;-45
2024/02/20 12:02:22;;;;;;;;;;;;;;;18.35;42.41;101568.69;5021000;28;1369;-47
2024/02/20 12:04:56;;;;;;;;;;;;;;;18.54;41.40;101560.00;5032343;28;1257;-51
2024/02/20 12:07:25;;;;;;;;;;;;;;;16.89;46.00;101569.56;5025571;28;925;-52
2024/02/20 12:09:54;;;;;;;;;;;;;;;19.46;39.93;101570.47;5017984;28;1914;-51
2024/02/20 12:12:30;;;;;;;;;;;;;;;15.68;48.22;101566.34;5031104;28;1020;-53
2024/02/20 12:14:56;;;;;;;;;;;;;;;18.83;41.28;101557.63;5031530;28;1111;-49
2024/02/20 12:17:27;;;;;;;;;;;;;;;18.31;42.06;101562.03;5037162;28;2021;-48
2024/02/20 12:20:05;;;;;;;;;;;;;;;17.20;45.35;101558.91;5027630;28;1000;-48
2024/02/20 12:22:31;;;;;;;;;;;;;;;19.65;39.67;101568.03;5035882;28;1048;-51
2024/02/20 12:25:10;;;;;;;;;;;;;;;15.49;48.75;101563.03;5037324;28;1087;-53
2024/02/20 12:27:35;;;;;;;;;;;;;;;18.68;41.70;101561.16;5037397;28;1164;-49
2024/02/20 12:30:02;;;;;;;;;;;;;;;17.40;43.82;101558.28;5036354;28;1906;-50
2024/02/20 12:32:27;;;;;;;;;;;;;;;17.13;45.33;101563.78;5036545;28;1091;-54
2024/02/20 12:34:56;;;;;;;;;;;;;;;19.46;40.07;101565.81;5024456;28;1044;-48
2024/02/20 12:37:22;;;;;;;;;;;;;;;15.22;49.53;101559.00;5035988;28;1020;-49
2024/02/20 12:39:47;;;;;;;;;;;;;;;18.71;41.66;101557.84;5037500;28;1073;-52
2024/02/20 12:42:13;;;;;;;;;;;;;;;18.13;42.14;101569.66;5036264;28;1155;-57